createdAt,value
2022-12-27T00:01:11.918Z,0.90
2022-12-27T00:03:41.030Z,1.10
2022-12-27T00:06:12.368Z,1.40
2022-12-27T00:08:40.831Z,1.30
2022-12-27T00:11:10.741Z,1.07
2022-12-27T00:13:39.524Z,1.00
2022-12-27T00:16:11.535Z,1.00
2022-12-27T00:18:40.808Z,1.10
2022-12-27T00:21:12.889Z,1.20
2022-12-27T00:23:43.870Z,0.80
2022-12-27T00:26:14.734Z,1.00
2022-12-27T00:28:43.539Z,0.90
2022-12-27T00:31:12.553Z,1.00
2022-12-27T00:33:42.410Z,1.10
2022-12-27T00:36:14.643Z,1.17
2022-12-27T00:38:43.314Z,1.10
2022-12-27T00:41:12.357Z,1.20
2022-12-27T00:43:41.759Z,1.10
2022-12-27T00:46:11.011Z,1.00
2022-12-27T00:48:39.624Z,1.10
2022-12-27T00:51:09.723Z,1.03
2022-12-27T00:53:42.167Z,1.00
2022-12-27T00:56:12.387Z,1.20
2022-12-27T00:58:41.242Z,1.10
2022-12-27T01:01:15.376Z,1.30
2022-12-27T01:03:44.496Z,1.40
2022-12-27T01:06:14.811Z,1.23
2022-12-27T01:08:45.035Z,1.23
2022-12-27T01:11:14.122Z,1.30
2022-12-27T01:13:42.994Z,1.20
2022-12-27T01:16:12.574Z,1.10
2022-12-27T01:18:41.106Z,1.10
2022-12-27T01:21:11.355Z,1.30
2022-12-27T01:23:40.353Z,1.00
2022-12-27T01:26:12.529Z,1.00
2022-12-27T01:28:42.276Z,1.43
2022-12-27T01:31:12.766Z,1.40
2022-12-27T01:33:41.463Z,1.20
2022-12-27T01:36:12.343Z,0.97
2022-12-27T01:38:42.817Z,1.37
2022-12-27T01:41:34.229Z,1.10
2022-12-27T01:44:02.921Z,1.13
2022-12-27T01:46:31.766Z,1.20
2022-12-27T01:49:02.304Z,1.20
2022-12-27T01:51:32.853Z,1.00
2022-12-27T01:54:01.259Z,1.13
2022-12-27T01:56:32.186Z,1.47
2022-12-27T01:59:03.939Z,1.73
2022-12-27T02:01:35.211Z,1.00
2022-12-27T02:04:07.305Z,1.00
2022-12-27T02:06:37.308Z,1.20
2022-12-27T02:09:12.134Z,1.10
2022-12-27T02:11:55.251Z,1.13
2022-12-27T02:14:28.874Z,1.10
2022-12-27T02:16:58.913Z,1.50
2022-12-27T02:19:40.146Z,1.23
2022-12-27T02:22:23.993Z,1.27
2022-12-27T02:25:04.828Z,1.03
2022-12-27T02:28:00.158Z,1.20
2022-12-27T02:30:30.951Z,1.23
2022-12-27T02:33:03.694Z,1.00
2022-12-27T02:35:35.483Z,1.30
2022-12-27T02:38:08.661Z,1.30
2022-12-27T02:40:57.844Z,1.50
2022-12-27T02:43:44.728Z,1.50
2022-12-27T02:46:36.156Z,1.60
2022-12-27T02:49:22.777Z,1.20
2022-12-27T02:52:17.383Z,1.50
2022-12-27T02:55:09.969Z,1.10
2022-12-27T02:57:42.304Z,1.23
2022-12-27T03:00:30.421Z,1.20
2022-12-27T03:03:37.235Z,1.30
2022-12-27T03:06:39.109Z,1.10
2022-12-27T03:09:37.559Z,1.20
2022-12-27T03:12:26.374Z,1.97
2022-12-27T03:15:17.293Z,1.23
2022-12-27T03:17:50.380Z,1.10
2022-12-27T03:20:38.438Z,1.30
2022-12-27T03:23:27.522Z,1.20
2022-12-27T03:25:56.663Z,1.20
2022-12-27T03:28:46.281Z,1.30
2022-12-27T03:31:35.925Z,1.10
2022-12-27T03:34:27.740Z,1.07
2022-12-27T03:37:18.786Z,1.40
2022-12-27T03:39:51.333Z,1.10
2022-12-27T03:42:41.725Z,1.37
2022-12-27T03:45:10.874Z,1.20
2022-12-27T03:47:42.961Z,1.30
2022-12-27T03:50:15.273Z,1.60
2022-12-27T03:52:47.802Z,1.50
2022-12-27T03:55:16.906Z,1.20
2022-12-27T03:57:45.368Z,1.37
2022-12-27T04:00:15.074Z,1.13
2022-12-27T04:02:45.343Z,1.23
2022-12-27T04:05:13.857Z,1.30
2022-12-27T04:07:59.784Z,1.20
2022-12-27T04:10:46.885Z,1.67
2022-12-27T04:13:32.594Z,1.20
2022-12-27T04:16:18.341Z,1.20
2022-12-27T04:19:04.233Z,1.17
2022-12-27T04:21:50.210Z,1.50
2022-12-27T04:24:35.933Z,1.50
2022-12-27T04:27:23.208Z,1.10
2022-12-27T04:30:09.123Z,1.20
2022-12-27T04:32:54.827Z,1.50
2022-12-27T04:35:23.249Z,1.10
2022-12-27T04:37:51.759Z,1.33
2022-12-27T04:40:37.694Z,1.30
2022-12-27T04:43:26.465Z,1.50
2022-12-27T04:46:12.332Z,1.27
2022-12-27T04:48:58.282Z,1.30
2022-12-27T04:51:44.180Z,1.40
2022-12-27T04:54:33.922Z,1.57
2022-12-27T04:57:02.357Z,1.30
2022-12-27T04:59:49.800Z,1.47
2022-12-27T05:02:19.478Z,1.40
2022-12-27T05:04:49.158Z,1.77
2022-12-27T05:07:35.515Z,1.33
2022-12-27T05:10:23.290Z,1.30
2022-12-27T05:13:09.263Z,1.13
2022-12-27T05:15:39.068Z,1.30
2022-12-27T05:18:07.501Z,1.30
2022-12-27T05:20:36.095Z,1.30
2022-12-27T05:23:22.355Z,1.40
2022-12-27T05:25:50.787Z,1.60
2022-12-27T05:28:19.316Z,1.70
2022-12-27T05:30:49.088Z,1.80
2022-12-27T05:33:17.761Z,3.03
2022-12-27T05:35:46.181Z,4.40
2022-12-27T05:38:14.748Z,2.87
2022-12-27T05:40:43.234Z,2.00
2022-12-27T05:43:11.741Z,1.73
2022-12-27T05:45:40.153Z,1.70
2022-12-27T05:48:09.876Z,1.60
2022-12-27T05:50:38.277Z,1.60
2022-12-27T05:53:11.851Z,1.30
2022-12-27T05:55:40.427Z,1.87
2022-12-27T05:58:08.839Z,1.63
2022-12-27T06:00:37.543Z,1.50
2022-12-27T06:03:06.148Z,1.47
2022-12-27T06:05:36.023Z,1.60
2022-12-27T06:08:04.497Z,2.00
2022-12-27T06:10:32.924Z,1.83
2022-12-27T06:13:01.670Z,1.70
2022-12-27T06:15:30.112Z,1.60
2022-12-27T06:17:59.991Z,1.50
2022-12-27T06:20:28.424Z,1.50
2022-12-27T06:22:59.764Z,1.60
2022-12-27T06:25:28.167Z,1.73
2022-12-27T06:27:56.563Z,1.57
2022-12-27T06:30:25.012Z,1.60
2022-12-27T06:32:53.433Z,1.70
2022-12-27T06:35:21.818Z,1.70
2022-12-27T06:37:50.258Z,1.40
2022-12-27T06:40:21.940Z,1.80
2022-12-27T06:42:50.426Z,1.50
2022-12-27T06:45:19.225Z,1.40
2022-12-27T06:47:47.659Z,1.80
2022-12-27T06:50:16.500Z,1.63
2022-12-27T06:52:47.760Z,1.70
2022-12-27T06:55:16.405Z,1.87
2022-12-27T06:57:46.216Z,1.97
2022-12-27T07:00:16.161Z,1.90
2022-12-27T07:02:44.861Z,1.50
2022-12-27T07:05:13.411Z,1.90
2022-12-27T07:07:41.781Z,1.73
2022-12-27T07:10:10.993Z,2.00
2022-12-27T07:12:39.525Z,1.80
2022-12-27T07:15:10.421Z,1.73
2022-12-27T07:17:39.374Z,2.10
2022-12-27T07:20:09.217Z,1.83
2022-12-27T07:22:37.801Z,1.43
2022-12-27T07:25:07.655Z,1.60
2022-12-27T07:27:36.463Z,1.50
2022-12-27T07:30:06.241Z,1.40
2022-12-27T07:32:36.203Z,1.70
2022-12-27T07:35:05.330Z,1.63
2022-12-27T07:37:33.861Z,1.87
2022-12-27T07:40:02.332Z,2.00
2022-12-27T07:42:30.899Z,1.80
2022-12-27T07:45:00.204Z,1.77
2022-12-27T07:47:28.585Z,1.63
2022-12-27T07:49:58.373Z,1.70
2022-12-27T07:52:27.044Z,1.60
2022-12-27T07:54:55.459Z,1.80
2022-12-27T07:57:24.502Z,1.87
2022-12-27T07:59:52.952Z,2.20
2022-12-27T08:02:21.434Z,1.90
2022-12-27T08:04:49.888Z,2.00
2022-12-27T08:07:20.727Z,1.60
2022-12-27T08:09:49.874Z,2.00
2022-12-27T08:12:18.285Z,1.93
2022-12-27T08:14:46.681Z,1.60
2022-12-27T08:17:20.716Z,1.70
2022-12-27T08:19:52.006Z,1.80
2022-12-27T08:22:22.194Z,1.80
2022-12-27T08:24:51.179Z,1.70
2022-12-27T08:27:23.913Z,1.90
2022-12-27T08:29:52.427Z,2.10
2022-12-27T08:32:20.959Z,1.87
2022-12-27T08:34:49.526Z,1.70
2022-12-27T08:37:17.964Z,1.53
2022-12-27T08:39:47.840Z,1.80
2022-12-27T08:42:16.354Z,1.80
2022-12-27T08:44:45.052Z,1.67
2022-12-27T08:47:14.210Z,1.77
2022-12-27T08:49:42.557Z,2.10
2022-12-27T08:52:10.909Z,1.93
2022-12-27T08:54:39.449Z,1.60
2022-12-27T08:57:09.297Z,1.67
2022-12-27T08:59:37.824Z,2.13
2022-12-27T09:02:06.510Z,1.97
2022-12-27T09:04:35.079Z,1.97
2022-12-27T09:07:03.799Z,1.97
2022-12-27T09:09:32.709Z,1.73
2022-12-27T09:12:04.077Z,1.73
2022-12-27T09:14:38.197Z,1.90
2022-12-27T09:17:07.229Z,1.60
2022-12-27T09:19:36.068Z,1.43
2022-12-27T09:22:04.559Z,1.80
2022-12-27T09:24:33.340Z,2.20
2022-12-27T09:27:01.952Z,1.77
2022-12-27T09:29:30.341Z,1.70
2022-12-27T09:32:00.318Z,1.73
2022-12-27T09:34:28.881Z,1.87
2022-12-27T09:36:57.368Z,1.60
2022-12-27T09:39:25.741Z,1.67
2022-12-27T09:44:50.914Z,1.57
2022-12-27T09:47:24.726Z,1.80
2022-12-27T09:49:54.692Z,1.87
2022-12-27T09:52:27.911Z,1.90
2022-12-27T09:55:04.700Z,2.23
2022-12-27T09:57:37.516Z,1.80
2022-12-27T10:00:14.595Z,1.90
2022-12-27T10:02:45.426Z,1.67
2022-12-27T10:05:21.566Z,1.60
2022-12-27T10:08:00.747Z,1.50
2022-12-27T10:10:42.690Z,1.83
2022-12-27T10:13:20.333Z,1.77
2022-12-27T10:15:52.524Z,2.07
2022-12-27T10:18:41.565Z,1.97
2022-12-27T10:21:19.330Z,1.40
2022-12-27T10:23:54.029Z,1.63
2022-12-27T10:26:22.981Z,1.57
2022-12-27T10:28:57.127Z,2.00
2022-12-27T10:31:26.761Z,1.50
2022-12-27T10:33:56.590Z,1.87
2022-12-27T10:36:28.205Z,1.70
2022-12-27T10:38:56.817Z,1.40
2022-12-27T10:41:35.153Z,1.83
2022-12-27T10:44:04.025Z,1.63
2022-12-27T10:46:33.741Z,1.47
2022-12-27T10:49:20.531Z,1.47
2022-12-27T10:51:50.124Z,1.70
2022-12-27T10:54:22.557Z,1.53
2022-12-27T10:56:51.174Z,1.67
2022-12-27T10:59:21.091Z,1.83
2022-12-27T11:01:51.743Z,1.47
2022-12-27T11:04:22.891Z,1.37
2022-12-27T11:06:52.798Z,1.63
2022-12-27T11:09:30.185Z,1.33
2022-12-27T11:12:13.944Z,1.70
2022-12-27T11:14:55.124Z,1.47
2022-12-27T11:17:26.229Z,1.80
2022-12-27T11:19:57.596Z,1.40
2022-12-27T11:22:26.580Z,1.40
2022-12-27T11:24:58.285Z,1.20
2022-12-27T11:27:29.157Z,1.70
2022-12-27T11:29:59.419Z,1.50
2022-12-27T11:32:28.099Z,1.80
2022-12-27T11:34:58.577Z,1.60
2022-12-27T11:37:27.648Z,1.83
2022-12-27T11:39:56.959Z,1.63
2022-12-27T11:42:33.554Z,1.50
2022-12-27T11:45:10.157Z,1.53
2022-12-27T11:47:42.833Z,1.50
2022-12-27T11:50:38.501Z,1.50
2022-12-27T11:53:13.613Z,1.83
2022-12-27T11:55:54.296Z,1.60
2022-12-27T11:58:55.026Z,2.03
2022-12-27T12:01:44.533Z,1.90
2022-12-27T12:04:38.917Z,1.50
2022-12-27T12:07:18.549Z,1.70
2022-12-27T12:09:57.892Z,1.70
2022-12-27T12:12:54.281Z,1.40
2022-12-27T12:15:43.413Z,1.40
2022-12-27T12:18:23.480Z,1.33
2022-12-27T12:21:05.934Z,1.70
2022-12-27T12:23:50.174Z,1.40
2022-12-27T12:26:19.185Z,1.60
2022-12-27T12:29:11.217Z,1.60
2022-12-27T12:32:05.219Z,1.57
2022-12-27T12:34:47.945Z,1.57
2022-12-27T12:37:26.487Z,1.40
2022-12-27T12:40:10.737Z,1.63
2022-12-27T12:42:46.347Z,1.70
2022-12-27T12:45:33.095Z,1.50
2022-12-27T12:48:34.762Z,1.37
2022-12-27T12:51:12.417Z,1.50
2022-12-27T12:53:51.979Z,1.67
2022-12-27T12:56:38.810Z,1.50
2022-12-27T12:59:26.289Z,1.60
2022-12-27T13:02:05.135Z,1.47
2022-12-27T13:04:44.604Z,1.50
2022-12-27T13:07:28.359Z,1.20
2022-12-27T13:10:28.492Z,1.83
2022-12-27T13:13:02.144Z,1.50
2022-12-27T13:15:40.083Z,1.63
2022-12-27T13:18:21.784Z,1.47
2022-12-27T13:21:07.772Z,1.50
2022-12-27T13:23:45.354Z,1.50
2022-12-27T13:26:21.320Z,1.50
2022-12-27T13:29:06.382Z,1.50
2022-12-27T13:31:41.333Z,1.50
2022-12-27T13:34:22.243Z,2.00
2022-12-27T13:37:02.458Z,1.60
2022-12-27T13:39:42.664Z,1.60
2022-12-27T13:42:36.658Z,1.70
2022-12-27T13:45:16.698Z,1.50
2022-12-27T13:47:57.675Z,1.40
2022-12-27T13:50:44.947Z,1.80
2022-12-27T13:53:46.763Z,1.90
2022-12-27T13:56:52.963Z,1.57
2022-12-27T13:59:36.841Z,2.00
2022-12-27T14:02:30.923Z,1.63
2022-12-27T14:05:19.190Z,1.87
2022-12-27T14:07:57.201Z,1.80
2022-12-27T14:10:36.246Z,1.80
2022-12-27T14:13:07.795Z,1.60
2022-12-27T14:16:01.111Z,2.27
2022-12-27T14:18:53.795Z,2.40
2022-12-27T14:21:45.120Z,2.10
2022-12-27T14:24:22.703Z,1.97
2022-12-27T14:27:35.567Z,2.07
2022-12-27T14:30:20.438Z,1.90
2022-12-27T14:33:31.507Z,1.90
2022-12-27T14:36:38.097Z,1.90
2022-12-27T14:39:24.836Z,2.23
2022-12-27T14:42:15.866Z,2.73
2022-12-27T14:45:11.031Z,2.40
2022-12-27T14:48:33.310Z,2.10
2022-12-27T14:54:56.245Z,2.23
2022-12-27T14:57:34.729Z,2.00
2022-12-27T15:00:11.916Z,2.10
2022-12-27T15:02:52.214Z,2.20
2022-12-27T15:05:32.445Z,2.00
2022-12-27T15:08:15.031Z,2.00
2022-12-27T15:11:02.618Z,2.00
2022-12-27T15:13:44.605Z,2.20
2022-12-27T15:16:17.545Z,2.37
2022-12-27T15:19:04.797Z,2.20
2022-12-27T15:21:48.321Z,2.40
2022-12-27T15:24:27.716Z,2.73
2022-12-27T15:26:59.582Z,2.20
2022-12-27T15:29:36.051Z,2.30
2022-12-27T15:32:12.966Z,2.63
2022-12-27T15:35:00.327Z,2.40
2022-12-27T15:38:01.932Z,2.53
2022-12-27T15:40:42.171Z,2.87
2022-12-27T15:43:22.452Z,3.27
2022-12-27T15:45:59.780Z,2.60
2022-12-27T15:48:59.777Z,3.17
2022-12-27T15:51:34.160Z,2.70
2022-12-27T15:54:20.346Z,2.73
2022-12-27T15:57:21.253Z,2.83
2022-12-27T15:59:51.795Z,2.77
2022-12-27T16:02:36.426Z,2.30
2022-12-27T16:05:13.879Z,2.10
2022-12-27T16:07:45.537Z,1.83
2022-12-27T16:10:33.423Z,2.00
2022-12-27T16:13:18.525Z,2.67
2022-12-27T16:15:52.775Z,2.93
2022-12-27T16:18:44.869Z,2.30
2022-12-27T16:21:18.294Z,2.30
2022-12-27T16:23:51.941Z,2.67
2022-12-27T16:26:22.560Z,3.00
2022-12-27T16:28:57.090Z,3.47
2022-12-27T16:31:26.831Z,2.57
2022-12-27T16:33:58.419Z,2.63
2022-12-27T16:36:29.764Z,2.87
2022-12-27T16:39:31.243Z,2.70
2022-12-27T16:42:09.267Z,3.43
2022-12-27T16:44:48.680Z,3.87
2022-12-27T16:47:41.346Z,3.40
2022-12-27T16:50:43.904Z,4.37
2022-12-27T16:53:20.594Z,3.93
2022-12-27T16:56:03.023Z,3.70
2022-12-27T16:58:36.917Z,4.03
2022-12-27T17:01:06.960Z,4.00
2022-12-27T17:03:59.644Z,4.80
2022-12-27T17:06:57.588Z,3.90
2022-12-27T17:09:45.696Z,3.80
2022-12-27T17:12:24.533Z,3.77
2022-12-27T17:14:58.958Z,4.40
2022-12-27T17:17:27.909Z,5.20
2022-12-27T17:19:59.871Z,5.43
2022-12-27T17:22:34.976Z,6.20
2022-12-27T17:25:04.835Z,5.77
2022-12-27T17:27:48.515Z,6.60
2022-12-27T17:30:20.349Z,7.13
2022-12-27T17:33:10.968Z,9.07
2022-12-27T17:35:51.716Z,18.90
2022-12-27T17:38:30.952Z,12.63
2022-12-27T17:41:11.945Z,14.00
2022-12-27T17:44:08.855Z,15.17
2022-12-27T17:46:42.754Z,14.37
2022-12-27T17:49:11.853Z,21.23
2022-12-27T17:52:02.988Z,20.87
2022-12-27T17:54:50.734Z,21.13
2022-12-27T17:57:38.207Z,21.97
2022-12-27T18:00:08.322Z,17.63
2022-12-27T18:02:41.286Z,17.40
2022-12-27T18:05:14.321Z,16.03
2022-12-27T18:07:43.670Z,20.83
2022-12-27T18:10:20.219Z,22.43
2022-12-27T18:12:52.248Z,32.27
2022-12-27T18:15:23.404Z,26.63
2022-12-27T18:17:54.106Z,23.87
2022-12-27T18:20:35.095Z,19.03
2022-12-27T18:23:24.517Z,17.57
2022-12-27T18:25:56.820Z,20.03
2022-12-27T18:28:32.595Z,18.33
2022-12-27T18:31:06.141Z,24.90
2022-12-27T18:33:35.952Z,35.07
2022-12-27T18:36:06.005Z,25.00
2022-12-27T18:38:36.531Z,26.37
2022-12-27T18:41:08.652Z,26.17
2022-12-27T18:43:37.773Z,19.30
2022-12-27T18:46:06.730Z,17.37
2022-12-27T18:48:36.545Z,17.73
2022-12-27T18:51:05.683Z,16.10
2022-12-27T18:53:36.875Z,17.43
2022-12-27T18:56:09.171Z,16.73
2022-12-27T18:58:37.739Z,17.00
2022-12-27T19:01:14.801Z,15.33
2022-12-27T19:03:43.542Z,15.40
2022-12-27T19:06:13.425Z,14.67
2022-12-27T19:08:46.744Z,14.53
2022-12-27T19:11:22.003Z,14.40
2022-12-27T19:13:51.922Z,15.40
2022-12-27T19:16:24.141Z,15.07
2022-12-27T19:18:54.703Z,15.80
2022-12-27T19:21:30.780Z,16.17
2022-12-27T19:23:59.320Z,15.50
2022-12-27T19:26:32.726Z,14.63
2022-12-27T19:29:04.248Z,15.27
2022-12-27T19:31:32.856Z,15.43
2022-12-27T19:34:03.456Z,18.07
2022-12-27T19:36:34.148Z,20.57
2022-12-27T19:39:03.112Z,22.10
2022-12-27T19:41:33.047Z,22.30
2022-12-27T19:44:03.492Z,22.23
2022-12-27T19:46:32.040Z,21.40
2022-12-27T19:51:50.313Z,24.30
2022-12-27T19:54:21.197Z,22.83
2022-12-27T19:56:51.241Z,22.43
2022-12-27T19:59:22.523Z,21.67
2022-12-27T20:01:51.462Z,22.77
2022-12-27T20:04:20.898Z,23.17
2022-12-27T20:06:49.974Z,22.60
2022-12-27T20:09:20.101Z,23.77
2022-12-27T20:11:51.049Z,21.40
2022-12-27T20:14:19.729Z,20.57
2022-12-27T20:16:48.182Z,19.60
2022-12-27T20:19:18.171Z,20.07
2022-12-27T20:21:46.952Z,19.77
2022-12-27T20:24:15.724Z,19.67
2022-12-27T20:26:44.560Z,20.17
2022-12-27T20:29:15.168Z,20.40
2022-12-27T20:31:48.527Z,19.37
2022-12-27T20:34:17.038Z,15.87
2022-12-27T20:36:45.763Z,18.90
2022-12-27T20:39:14.221Z,20.77
2022-12-27T20:41:42.719Z,19.83
2022-12-27T20:44:11.211Z,22.53
2022-12-27T20:46:41.609Z,23.03
2022-12-27T20:49:10.152Z,25.87
2022-12-27T20:51:38.593Z,23.77
2022-12-27T20:54:07.056Z,22.50
2022-12-27T20:56:36.745Z,20.43
2022-12-27T20:59:05.310Z,19.00
2022-12-27T21:01:33.947Z,20.13
2022-12-27T21:04:04.159Z,19.33
2022-12-27T21:06:32.628Z,20.87
2022-12-27T21:09:01.033Z,20.63
2022-12-27T21:11:31.576Z,21.03
2022-12-27T21:14:01.113Z,21.40
2022-12-27T21:16:31.141Z,21.43
2022-12-27T21:19:02.845Z,20.23
2022-12-27T21:21:34.251Z,19.93
2022-12-27T21:24:02.932Z,19.33
2022-12-27T21:26:33.440Z,18.43
2022-12-27T21:29:03.025Z,19.07
2022-12-27T21:31:32.222Z,18.70
2022-12-27T21:34:01.088Z,17.37
2022-12-27T21:36:32.593Z,18.17
2022-12-27T21:39:02.867Z,17.80
2022-12-27T21:41:33.066Z,17.70
2022-12-27T21:44:02.104Z,15.73
2022-12-27T21:46:31.948Z,15.07
2022-12-27T21:49:02.071Z,14.53
2022-12-27T21:51:32.809Z,12.57
2022-12-27T21:54:01.331Z,12.40
2022-12-27T21:56:30.588Z,11.67
2022-12-27T21:59:00.265Z,11.93
2022-12-27T22:01:30.057Z,11.90
2022-12-27T22:03:59.644Z,12.73
2022-12-27T22:06:29.433Z,12.30
2022-12-27T22:09:00.421Z,12.80
2022-12-27T22:11:29.900Z,12.60
2022-12-27T22:13:58.744Z,13.30
2022-12-27T22:16:28.765Z,12.07
2022-12-27T22:18:57.299Z,12.27
2022-12-27T22:21:27.890Z,11.13
2022-12-27T22:23:57.981Z,11.57
2022-12-27T22:26:29.650Z,10.77
2022-12-27T22:28:58.380Z,11.50
2022-12-27T22:31:30.186Z,11.87
2022-12-27T22:33:58.917Z,13.90
2022-12-27T22:36:28.103Z,12.40
2022-12-27T22:38:56.878Z,11.63
2022-12-27T22:41:28.549Z,12.13
2022-12-27T22:43:58.467Z,11.60
2022-12-27T22:46:27.262Z,13.27
2022-12-27T22:48:57.427Z,13.17
2022-12-27T22:51:28.088Z,11.87
2022-12-27T22:53:57.015Z,12.83
2022-12-27T22:56:28.936Z,12.30
2022-12-27T22:58:57.750Z,11.13
2022-12-27T23:01:27.763Z,11.27
2022-12-27T23:03:57.040Z,11.37
2022-12-27T23:06:26.123Z,12.23
2022-12-27T23:08:54.932Z,11.87
2022-12-27T23:11:26.220Z,12.17
2022-12-27T23:13:58.725Z,11.83
2022-12-27T23:16:27.629Z,12.63
2022-12-27T23:18:56.258Z,13.20
2022-12-27T23:21:24.979Z,12.07
2022-12-27T23:23:53.937Z,11.67
2022-12-27T23:26:24.095Z,12.90
2022-12-27T23:28:53.385Z,11.63
2022-12-27T23:31:24.419Z,10.80
2022-12-27T23:33:53.417Z,11.30
2022-12-27T23:36:23.208Z,12.83
2022-12-27T23:38:51.930Z,12.07
2022-12-27T23:41:23.324Z,11.23
2022-12-27T23:43:54.544Z,10.07
2022-12-27T23:46:28.092Z,9.80
2022-12-27T23:48:57.444Z,9.07
2022-12-27T23:51:25.967Z,9.67
2022-12-27T23:53:54.655Z,9.00
2022-12-27T23:56:24.763Z,9.23
2022-12-27T23:58:54.737Z,9.20
